createdAt,value
2019-01-19T00:00:54.221Z,1013.82
2019-01-19T00:01:54.294Z,1013.80
2019-01-19T00:02:54.218Z,1013.85
2019-01-19T00:03:54.192Z,1013.84
2019-01-19T00:04:54.203Z,1013.80
2019-01-19T00:05:54.185Z,1013.88
2019-01-19T00:06:54.160Z,1013.80
2019-01-19T00:07:54.186Z,1013.84
2019-01-19T00:08:54.136Z,1013.82
2019-01-19T00:09:54.143Z,1013.83
2019-01-19T00:10:54.112Z,1013.80
2019-01-19T00:11:54.132Z,1013.76
2019-01-19T00:12:54.107Z,1013.76
2019-01-19T00:13:54.092Z,1013.75
2019-01-19T00:14:54.072Z,1013.70
2019-01-19T00:15:54.058Z,1013.71
2019-01-19T00:16:54.048Z,1013.72
2019-01-19T00:17:54.052Z,1013.75
2019-01-19T00:18:54.040Z,1013.72
2019-01-19T00:19:54.011Z,1013.72
2019-01-19T00:20:54.001Z,1013.74
2019-01-19T00:21:53.988Z,1013.75
2019-01-19T00:22:53.977Z,1013.74
2019-01-19T00:23:53.985Z,1013.70
2019-01-19T00:24:53.973Z,1013.70
2019-01-19T00:25:53.944Z,1013.72
2019-01-19T00:26:53.936Z,1013.68
2019-01-19T00:27:53.941Z,1013.67
2019-01-19T00:28:53.914Z,1013.70
2019-01-19T00:29:53.914Z,1013.70
2019-01-19T00:30:53.972Z,1013.66
2019-01-19T00:31:53.886Z,1013.69
2019-01-19T00:32:53.871Z,1013.67
2019-01-19T00:33:53.859Z,1013.71
2019-01-19T00:34:53.874Z,1013.70
2019-01-19T00:35:53.856Z,1013.69
2019-01-19T00:36:53.827Z,1013.67
2019-01-19T00:37:53.818Z,1013.67
2019-01-19T00:38:53.852Z,1013.67
2019-01-19T00:39:53.796Z,1013.69
2019-01-19T00:40:53.838Z,1013.68
2019-01-19T00:41:53.846Z,1013.66
2019-01-19T00:42:53.786Z,1013.65
2019-01-19T00:43:53.760Z,1013.67
2019-01-19T00:44:53.745Z,1013.68
2019-01-19T00:45:53.781Z,1013.66
2019-01-19T00:46:54.760Z,1013.71
2019-01-19T00:47:53.714Z,1013.68
2019-01-19T00:48:53.699Z,1013.69
2019-01-19T00:49:53.682Z,1013.69
2019-01-19T00:50:53.675Z,1013.71
2019-01-19T00:51:53.682Z,1013.68
2019-01-19T00:52:53.656Z,1013.74
2019-01-19T00:53:53.655Z,1013.75
2019-01-19T00:54:53.638Z,1013.78
2019-01-19T00:55:53.622Z,1013.73
2019-01-19T00:56:53.636Z,1013.71
2019-01-19T00:57:53.623Z,1013.68
2019-01-19T00:58:53.686Z,1013.73
2019-01-19T00:59:53.687Z,1013.71
2019-01-19T01:00:53.584Z,1013.71
2019-01-19T01:01:53.564Z,1013.69
2019-01-19T01:02:53.560Z,1013.69
2019-01-19T01:03:53.543Z,1013.70
2019-01-19T01:04:53.534Z,1013.66
2019-01-19T01:05:53.542Z,1013.69
2019-01-19T01:06:53.504Z,1013.62
2019-01-19T01:07:53.514Z,1013.67
2019-01-19T01:08:53.504Z,1013.67
2019-01-19T01:09:53.479Z,1013.65
2019-01-19T01:10:53.471Z,1013.65
2019-01-19T01:11:53.458Z,1013.64
2019-01-19T01:12:53.442Z,1013.64
2019-01-19T01:13:53.426Z,1013.62
2019-01-19T01:14:53.422Z,1013.65
2019-01-19T01:15:53.398Z,1013.60
2019-01-19T01:16:53.390Z,1013.64
2019-01-19T01:17:53.391Z,1013.60
2019-01-19T01:18:53.372Z,1013.62
2019-01-19T01:19:53.413Z,1013.66
2019-01-19T01:20:53.347Z,1013.65
2019-01-19T01:21:53.346Z,1013.67
2019-01-19T01:22:53.352Z,1013.66
2019-01-19T01:23:53.315Z,1013.66
2019-01-19T01:24:53.307Z,1013.67
2019-01-19T01:25:53.337Z,1013.68
2019-01-19T01:26:53.301Z,1013.68
2019-01-19T01:27:53.275Z,1013.68
2019-01-19T01:28:53.269Z,1013.63
2019-01-19T01:29:53.248Z,1013.57
2019-01-19T01:30:53.257Z,1013.59
2019-01-19T01:31:53.236Z,1013.66
2019-01-19T01:32:53.226Z,1013.65
2019-01-19T01:33:53.218Z,1013.61
2019-01-19T01:34:53.195Z,1013.60
2019-01-19T01:35:53.246Z,1013.54
2019-01-19T01:36:53.212Z,1013.56
2019-01-19T01:37:53.170Z,1013.53
2019-01-19T01:38:53.171Z,1013.56
2019-01-19T01:39:53.147Z,1013.59
2019-01-19T01:40:53.134Z,1013.52
2019-01-19T01:41:53.122Z,1013.56
2019-01-19T01:42:53.140Z,1013.52
2019-01-19T01:43:53.100Z,1013.51
2019-01-19T01:44:53.084Z,1013.53
2019-01-19T01:45:53.095Z,1013.51
2019-01-19T01:46:53.072Z,1013.53
2019-01-19T01:47:53.063Z,1013.50
2019-01-19T01:48:53.117Z,1013.53
2019-01-19T01:49:53.043Z,1013.51
2019-01-19T01:50:53.028Z,1013.49
2019-01-19T01:51:53.017Z,1013.50
2019-01-19T01:52:53.008Z,1013.50
2019-01-19T01:53:53.004Z,1013.47
2019-01-19T01:54:52.997Z,1013.43
2019-01-19T01:55:52.974Z,1013.48
2019-01-19T01:56:52.973Z,1013.45
2019-01-19T01:57:52.995Z,1013.43
2019-01-19T01:58:52.932Z,1013.47
2019-01-19T01:59:52.943Z,1013.41
2019-01-19T02:00:52.923Z,1013.43
2019-01-19T02:01:52.913Z,1013.45
2019-01-19T02:02:52.896Z,1013.46
2019-01-19T02:03:52.882Z,1013.44
2019-01-19T02:04:52.869Z,1013.41
2019-01-19T02:05:52.875Z,1013.39
2019-01-19T02:06:52.876Z,1013.41
2019-01-19T02:07:52.848Z,1013.38
2019-01-19T02:08:52.858Z,1013.38
2019-01-19T02:09:52.836Z,1013.37
2019-01-19T02:10:52.807Z,1013.36
2019-01-19T02:11:52.825Z,1013.35
2019-01-19T02:12:52.783Z,1013.30
2019-01-19T02:13:52.778Z,1013.36
2019-01-19T02:14:52.768Z,1013.29
2019-01-19T02:15:52.762Z,1013.35
2019-01-19T02:16:52.740Z,1013.30
2019-01-19T02:17:52.752Z,1013.34
2019-01-19T02:18:52.727Z,1013.33
2019-01-19T02:19:52.718Z,1013.31
2019-01-19T02:20:52.698Z,1013.33
2019-01-19T02:21:52.714Z,1013.34
2019-01-19T02:22:52.683Z,1013.32
2019-01-19T02:23:52.676Z,1013.32
2019-01-19T02:24:52.665Z,1013.33
2019-01-19T02:25:52.645Z,1013.33
2019-01-19T02:26:52.639Z,1013.31
2019-01-19T02:27:52.627Z,1013.33
2019-01-19T02:28:52.636Z,1013.30
2019-01-19T02:29:52.599Z,1013.28
2019-01-19T02:30:52.587Z,1013.29
2019-01-19T02:31:52.582Z,1013.30
2019-01-19T02:32:52.570Z,1013.23
2019-01-19T02:33:52.555Z,1013.24
2019-01-19T02:34:52.563Z,1013.26
2019-01-19T02:35:52.536Z,1013.22
2019-01-19T02:36:52.523Z,1013.24
2019-01-19T02:37:52.508Z,1013.21
2019-01-19T02:38:52.507Z,1013.21
2019-01-19T02:39:52.507Z,1013.21
2019-01-19T02:40:52.519Z,1013.20
2019-01-19T02:41:52.477Z,1013.16
2019-01-19T02:42:52.453Z,1013.18
2019-01-19T02:43:52.451Z,1013.13
2019-01-19T02:44:52.438Z,1013.14
2019-01-19T02:45:52.424Z,1013.14
2019-01-19T02:46:52.426Z,1013.13
2019-01-19T02:47:52.402Z,1013.14
2019-01-19T02:48:52.395Z,1013.15
2019-01-19T02:49:52.389Z,1013.14
2019-01-19T02:50:52.385Z,1013.12
2019-01-19T02:51:52.359Z,1013.11
2019-01-19T02:52:52.362Z,1013.13
2019-01-19T02:53:52.341Z,1013.14
2019-01-19T02:54:52.346Z,1013.12
2019-01-19T02:55:52.335Z,1013.07
2019-01-19T02:56:52.321Z,1013.11
2019-01-19T02:57:52.294Z,1013.11
2019-01-19T02:58:52.278Z,1013.08
2019-01-19T02:59:52.270Z,1013.07
2019-01-19T03:00:52.284Z,1013.11
2019-01-19T03:01:52.251Z,1013.04
2019-01-19T03:02:52.249Z,1013.03
2019-01-19T03:03:52.228Z,1013.01
2019-01-19T03:04:52.229Z,1013.03
2019-01-19T03:05:56.198Z,1013.03
2019-01-19T03:06:52.247Z,1013.06
2019-01-19T03:07:52.198Z,1013.07
2019-01-19T03:08:52.170Z,1013.10
2019-01-19T03:09:52.214Z,1013.10
2019-01-19T03:10:52.173Z,1013.10
2019-01-19T03:11:52.138Z,1013.12
2019-01-19T03:12:52.143Z,1013.12
2019-01-19T03:13:52.117Z,1013.13
2019-01-19T03:14:52.117Z,1013.15
2019-01-19T03:15:52.094Z,1013.10
2019-01-19T03:16:52.091Z,1013.14
2019-01-19T03:17:52.069Z,1013.09
2019-01-19T03:18:52.076Z,1013.15
2019-01-19T03:19:52.088Z,1013.11
2019-01-19T03:20:52.041Z,1013.12
2019-01-19T03:21:52.030Z,1013.17
2019-01-19T03:22:52.021Z,1013.15
2019-01-19T03:23:52.013Z,1013.09
2019-01-19T03:24:52.012Z,1013.08
2019-01-19T03:25:52.005Z,1013.11
2019-01-19T03:26:51.975Z,1013.09
2019-01-19T03:27:51.967Z,1013.09
2019-01-19T03:28:51.961Z,1013.11
2019-01-19T03:29:51.958Z,1013.09
2019-01-19T03:30:51.945Z,1013.03
2019-01-19T03:31:51.932Z,1013.09
2019-01-19T03:32:51.929Z,1013.10
2019-01-19T03:33:51.900Z,1013.11
2019-01-19T03:34:51.922Z,1013.11
2019-01-19T03:35:51.897Z,1013.12
2019-01-19T03:36:51.870Z,1013.11
2019-01-19T03:37:51.898Z,1013.09
2019-01-19T03:38:51.843Z,1013.08
2019-01-19T03:39:51.833Z,1013.07
2019-01-19T03:40:51.860Z,1013.07
2019-01-19T03:41:51.819Z,1013.01
2019-01-19T03:42:51.819Z,1013.09
2019-01-19T03:43:51.790Z,1013.06
2019-01-19T03:44:51.789Z,1013.02
2019-01-19T03:45:51.768Z,1013.00
2019-01-19T03:46:51.763Z,1013.03
2019-01-19T03:47:51.797Z,1012.96
2019-01-19T03:48:51.738Z,1012.98
2019-01-19T03:49:51.727Z,1012.98
2019-01-19T03:50:51.725Z,1012.91
2019-01-19T03:51:51.732Z,1012.91
2019-01-19T03:52:51.690Z,1012.97
2019-01-19T03:53:51.695Z,1012.95
2019-01-19T03:54:51.672Z,1012.95
2019-01-19T03:55:51.664Z,1012.92
2019-01-19T03:56:51.650Z,1012.90
2019-01-19T03:57:51.676Z,1012.89
2019-01-19T03:58:51.640Z,1012.90
2019-01-19T03:59:51.626Z,1012.86
2019-01-19T04:00:51.618Z,1012.89
2019-01-19T04:01:51.591Z,1012.85
2019-01-19T04:02:51.631Z,1012.82
2019-01-19T04:03:51.594Z,1012.85
2019-01-19T04:04:51.587Z,1012.82
2019-01-19T04:05:51.546Z,1012.84
2019-01-19T04:06:51.552Z,1012.84
2019-01-19T04:07:51.525Z,1012.84
2019-01-19T04:08:51.514Z,1012.82
2019-01-19T04:09:51.517Z,1012.85
2019-01-19T04:10:51.512Z,1012.83
2019-01-19T04:11:51.503Z,1012.85
2019-01-19T04:12:51.475Z,1012.86
2019-01-19T04:13:51.461Z,1012.82
2019-01-19T04:14:51.451Z,1012.79
2019-01-19T04:15:51.443Z,1012.79
2019-01-19T04:16:51.441Z,1012.82
2019-01-19T04:17:51.423Z,1012.81
2019-01-19T04:18:51.413Z,1012.82
2019-01-19T04:19:51.414Z,1012.81
2019-01-19T04:20:51.386Z,1012.79
2019-01-19T04:21:51.373Z,1012.80
2019-01-19T04:22:51.377Z,1012.76
2019-01-19T04:23:51.358Z,1012.76
2019-01-19T04:24:51.347Z,1012.81
2019-01-19T04:25:51.351Z,1012.81
2019-01-19T04:26:51.319Z,1012.77
2019-01-19T04:27:51.313Z,1012.79
2019-01-19T04:28:51.317Z,1012.81
2019-01-19T04:29:51.291Z,1012.77
2019-01-19T04:30:51.297Z,1012.76
2019-01-19T04:31:51.269Z,1012.75
2019-01-19T04:32:51.316Z,1012.74
2019-01-19T04:33:51.298Z,1012.70
2019-01-19T04:34:51.249Z,1012.77
2019-01-19T04:35:51.244Z,1012.76
2019-01-19T04:36:51.217Z,1012.74
2019-01-19T04:37:51.208Z,1012.73
2019-01-19T04:38:51.194Z,1012.73
2019-01-19T04:39:51.195Z,1012.71
2019-01-19T04:40:51.178Z,1012.72
2019-01-19T04:41:51.169Z,1012.65
2019-01-19T04:42:51.144Z,1012.64
2019-01-19T04:43:51.133Z,1012.65
2019-01-19T04:44:51.138Z,1012.66
2019-01-19T04:45:51.142Z,1012.67
2019-01-19T04:46:51.112Z,1012.60
2019-01-19T04:47:51.098Z,1012.66
2019-01-19T04:48:51.087Z,1012.61
2019-01-19T04:49:51.075Z,1012.61
2019-01-19T04:50:51.059Z,1012.63
2019-01-19T04:51:51.065Z,1012.61
2019-01-19T04:52:51.047Z,1012.63
2019-01-19T04:53:51.048Z,1012.65
2019-01-19T04:54:51.029Z,1012.65
2019-01-19T04:55:51.006Z,1012.66
2019-01-19T04:56:51.064Z,1012.65
2019-01-19T04:57:51.003Z,1012.71
2019-01-19T04:58:50.976Z,1012.60
2019-01-19T04:59:51.007Z,1012.64
2019-01-19T05:00:50.961Z,1012.67
2019-01-19T05:01:50.947Z,1012.61
2019-01-19T05:02:50.945Z,1012.70
2019-01-19T05:03:50.933Z,1012.62
2019-01-19T05:04:50.956Z,1012.60
2019-01-19T05:05:50.921Z,1012.58
2019-01-19T05:06:50.892Z,1012.67
2019-01-19T05:07:50.878Z,1012.61
2019-01-19T05:08:50.876Z,1012.62
2019-01-19T05:09:50.867Z,1012.59
2019-01-19T05:10:50.853Z,1012.60
2019-01-19T05:11:50.863Z,1012.57
2019-01-19T05:12:58.427Z,1012.62
2019-01-19T05:13:50.861Z,1012.57
2019-01-19T05:14:50.803Z,1012.64
2019-01-19T05:15:50.792Z,1012.62
2019-01-19T05:16:50.828Z,1012.61
2019-01-19T05:17:50.788Z,1012.59
2019-01-19T05:18:50.760Z,1012.56
2019-01-19T05:19:50.750Z,1012.55
2019-01-19T05:20:50.741Z,1012.54
2019-01-19T05:21:50.731Z,1012.52
2019-01-19T05:22:50.722Z,1012.55
2019-01-19T05:23:50.700Z,1012.53
2019-01-19T05:24:50.705Z,1012.55
2019-01-19T05:25:50.679Z,1012.53
2019-01-19T05:26:50.673Z,1012.55
2019-01-19T05:27:50.657Z,1012.53
2019-01-19T05:28:50.648Z,1012.51
2019-01-19T05:29:50.635Z,1012.53
2019-01-19T05:30:50.643Z,1012.54
2019-01-19T05:31:50.630Z,1012.52
2019-01-19T05:32:50.634Z,1012.56
2019-01-19T05:33:50.593Z,1012.50
2019-01-19T05:34:50.585Z,1012.53
2019-01-19T05:35:50.585Z,1012.53
2019-01-19T05:36:50.615Z,1012.56
2019-01-19T05:37:50.560Z,1012.52
2019-01-19T05:38:50.539Z,1012.53
2019-01-19T05:39:50.542Z,1012.49
2019-01-19T05:40:50.516Z,1012.52
2019-01-19T05:41:50.505Z,1012.51
2019-01-19T05:42:50.535Z,1012.55
2019-01-19T05:43:50.502Z,1012.54
2019-01-19T05:44:50.482Z,1012.51
2019-01-19T05:45:50.463Z,1012.54
2019-01-19T05:46:50.466Z,1012.54
2019-01-19T05:47:50.460Z,1012.53
2019-01-19T05:48:50.430Z,1012.54
2019-01-19T05:49:50.428Z,1012.50
2019-01-19T05:50:50.417Z,1012.55
2019-01-19T05:51:50.416Z,1012.50
2019-01-19T05:52:50.389Z,1012.52
2019-01-19T05:53:50.395Z,1012.51
2019-01-19T05:54:50.367Z,1012.53
2019-01-19T05:55:50.354Z,1012.55
2019-01-19T05:56:50.347Z,1012.51
2019-01-19T05:57:50.337Z,1012.52
2019-01-19T05:58:50.337Z,1012.50
2019-01-19T05:59:50.311Z,1012.55
2019-01-19T06:00:50.313Z,1012.51
2019-01-19T06:01:50.290Z,1012.54
2019-01-19T06:02:50.280Z,1012.57
2019-01-19T06:03:50.279Z,1012.52
2019-01-19T06:04:50.280Z,1012.55
2019-01-19T06:05:50.300Z,1012.56
2019-01-19T06:06:50.243Z,1012.55
2019-01-19T06:07:50.231Z,1012.54
2019-01-19T06:08:50.217Z,1012.48
2019-01-19T06:09:50.211Z,1012.55
2019-01-19T06:10:50.226Z,1012.61
2019-01-19T06:11:50.191Z,1012.50
2019-01-19T06:12:50.180Z,1012.55
2019-01-19T06:13:50.180Z,1012.54
2019-01-19T06:14:50.160Z,1012.52
2019-01-19T06:15:50.144Z,1012.53
2019-01-19T06:16:50.149Z,1012.56
2019-01-19T06:17:50.123Z,1012.58
2019-01-19T06:18:50.112Z,1012.59
2019-01-19T06:19:50.112Z,1012.57
2019-01-19T06:20:50.106Z,1012.54
2019-01-19T06:21:50.078Z,1012.55
2019-01-19T06:22:50.108Z,1012.53
2019-01-19T06:23:50.053Z,1012.55
2019-01-19T06:24:50.066Z,1012.56
2019-01-19T06:25:50.037Z,1012.52
2019-01-19T06:26:50.028Z,1012.57
2019-01-19T06:27:50.017Z,1012.57
2019-01-19T06:28:50.023Z,1012.54
2019-01-19T06:29:49.989Z,1012.60
2019-01-19T06:30:49.978Z,1012.53
2019-01-19T06:31:49.974Z,1012.52
2019-01-19T06:32:49.973Z,1012.53
2019-01-19T06:33:49.971Z,1012.54
2019-01-19T06:34:49.959Z,1012.54
2019-01-19T06:35:49.932Z,1012.49
2019-01-19T06:36:54.899Z,1012.49
2019-01-19T06:37:50.933Z,1012.52
2019-01-19T06:38:49.899Z,1012.52
2019-01-19T06:39:49.881Z,1012.50
2019-01-19T06:40:49.886Z,1012.53
2019-01-19T06:41:49.870Z,1012.54
2019-01-19T06:42:49.854Z,1012.52
2019-01-19T06:43:49.855Z,1012.50
2019-01-19T06:44:49.841Z,1012.53
2019-01-19T06:45:49.817Z,1012.48
2019-01-19T06:46:49.818Z,1012.50
2019-01-19T06:47:49.796Z,1012.46
2019-01-19T06:48:49.800Z,1012.50
2019-01-19T06:49:49.832Z,1012.52
2019-01-19T06:50:49.765Z,1012.48
2019-01-19T06:51:49.785Z,1012.52
2019-01-19T06:52:49.740Z,1012.44
2019-01-19T06:53:49.745Z,1012.46
2019-01-19T06:54:49.764Z,1012.47
2019-01-19T06:55:49.720Z,1012.45
2019-01-19T06:56:49.717Z,1012.48
2019-01-19T06:57:49.709Z,1012.49
2019-01-19T06:58:49.678Z,1012.48
2019-01-19T06:59:49.685Z,1012.48
2019-01-19T07:00:49.683Z,1012.50
2019-01-19T07:01:49.663Z,1012.52
2019-01-19T07:02:49.664Z,1012.46
2019-01-19T07:03:49.622Z,1012.51
2019-01-19T07:04:49.629Z,1012.52
2019-01-19T07:05:49.620Z,1012.52
2019-01-19T07:06:49.605Z,1012.52
2019-01-19T07:07:49.621Z,1012.51
2019-01-19T07:08:49.575Z,1012.51
2019-01-19T07:09:49.558Z,1012.50
2019-01-19T07:10:49.551Z,1012.51
2019-01-19T07:11:49.577Z,1012.51
2019-01-19T07:12:49.544Z,1012.49
2019-01-19T07:13:49.549Z,1012.56
2019-01-19T07:14:49.566Z,1012.53
2019-01-19T07:15:49.521Z,1012.51
2019-01-19T07:16:49.487Z,1012.51
2019-01-19T07:17:49.490Z,1012.55
2019-01-19T07:18:49.461Z,1012.56
2019-01-19T07:19:49.470Z,1012.52
2019-01-19T07:20:49.454Z,1012.57
2019-01-19T07:21:49.442Z,1012.58
2019-01-19T07:22:49.420Z,1012.55
2019-01-19T07:23:49.420Z,1012.52
2019-01-19T07:24:49.399Z,1012.49
2019-01-19T07:25:49.407Z,1012.53
2019-01-19T07:26:49.433Z,1012.52
2019-01-19T07:27:49.369Z,1012.53
2019-01-19T07:28:49.383Z,1012.54
2019-01-19T07:29:49.378Z,1012.52
2019-01-19T07:30:49.333Z,1012.51
2019-01-19T07:31:49.347Z,1012.49
2019-01-19T07:32:49.352Z,1012.53
2019-01-19T07:33:49.302Z,1012.52
2019-01-19T07:34:49.287Z,1012.54
2019-01-19T07:35:49.280Z,1012.54
2019-01-19T07:36:49.279Z,1012.55
2019-01-19T07:37:49.257Z,1012.51
2019-01-19T07:38:49.277Z,1012.56
2019-01-19T07:39:49.236Z,1012.55
2019-01-19T07:40:49.225Z,1012.57
2019-01-19T07:41:49.229Z,1012.58
2019-01-19T07:42:49.230Z,1012.53
2019-01-19T07:43:49.191Z,1012.57
2019-01-19T07:44:49.211Z,1012.55
2019-01-19T07:45:49.173Z,1012.60
2019-01-19T07:46:55.831Z,1012.60
2019-01-19T07:47:50.150Z,1012.62
2019-01-19T07:48:49.140Z,1012.62
2019-01-19T07:49:49.126Z,1012.63
2019-01-19T07:50:49.156Z,1012.61
2019-01-19T07:51:49.127Z,1012.64
2019-01-19T07:52:49.097Z,1012.62
2019-01-19T07:53:49.089Z,1012.61
2019-01-19T07:54:49.093Z,1012.65
2019-01-19T07:55:49.080Z,1012.65
2019-01-19T07:56:49.089Z,1012.66
2019-01-19T07:57:49.061Z,1012.68
2019-01-19T07:58:49.058Z,1012.68
2019-01-19T07:59:49.042Z,1012.67
2019-01-19T08:00:49.013Z,1012.71
2019-01-19T08:01:49.013Z,1012.70
2019-01-19T08:02:49.013Z,1012.69
2019-01-19T08:03:48.978Z,1012.70
2019-01-19T08:04:48.990Z,1012.64
2019-01-19T08:05:48.956Z,1012.67
2019-01-19T08:06:48.946Z,1012.65
2019-01-19T08:07:48.957Z,1012.69
2019-01-19T08:08:48.968Z,1012.68
2019-01-19T08:09:48.912Z,1012.62
2019-01-19T08:10:48.902Z,1012.67
2019-01-19T08:11:48.912Z,1012.64
2019-01-19T08:12:48.901Z,1012.67
2019-01-19T08:13:48.870Z,1012.62
2019-01-19T08:14:48.884Z,1012.61
2019-01-19T08:15:48.861Z,1012.62
2019-01-19T08:16:48.850Z,1012.59
2019-01-19T08:17:48.855Z,1012.59
2019-01-19T08:18:48.838Z,1012.63
2019-01-19T08:19:48.805Z,1012.59
2019-01-19T08:20:48.813Z,1012.58
2019-01-19T08:21:48.784Z,1012.54
2019-01-19T08:22:48.777Z,1012.60
2019-01-19T08:23:48.761Z,1012.60
2019-01-19T08:24:48.752Z,1012.64
2019-01-19T08:25:48.758Z,1012.64
2019-01-19T08:26:48.752Z,1012.68
2019-01-19T08:27:48.718Z,1012.60
2019-01-19T08:28:48.724Z,1012.66
2019-01-19T08:29:48.723Z,1012.61
2019-01-19T08:30:48.704Z,1012.66
2019-01-19T08:31:48.732Z,1012.62
2019-01-19T08:32:48.691Z,1012.63
2019-01-19T08:33:48.653Z,1012.64
2019-01-19T08:34:48.658Z,1012.63
2019-01-19T08:35:48.656Z,1012.67
2019-01-19T08:36:48.621Z,1012.68
2019-01-19T08:37:48.627Z,1012.70
2019-01-19T08:38:48.609Z,1012.71
2019-01-19T08:39:48.591Z,1012.76
2019-01-19T08:40:48.580Z,1012.73
2019-01-19T08:41:48.571Z,1012.76
2019-01-19T08:42:48.558Z,1012.77
2019-01-19T08:43:48.573Z,1012.79
2019-01-19T08:44:48.557Z,1012.84
2019-01-19T08:45:48.529Z,1012.80
2019-01-19T08:46:48.513Z,1012.82
2019-01-19T08:47:48.502Z,1012.84
2019-01-19T08:48:48.556Z,1012.84
2019-01-19T08:49:48.528Z,1012.87
2019-01-19T08:50:48.478Z,1012.86
2019-01-19T08:51:48.479Z,1012.83
2019-01-19T08:52:48.445Z,1012.82
2019-01-19T08:53:48.440Z,1012.75
2019-01-19T08:54:48.438Z,1012.87
2019-01-19T08:55:48.414Z,1012.88
2019-01-19T08:56:48.402Z,1012.83
2019-01-19T08:57:48.434Z,1012.78
2019-01-19T08:58:48.380Z,1012.77
2019-01-19T08:59:48.369Z,1012.74
2019-01-19T09:00:48.371Z,1012.76
2019-01-19T09:01:48.350Z,1012.74
2019-01-19T09:02:48.338Z,1012.76
2019-01-19T09:03:48.348Z,1012.67
2019-01-19T09:04:48.313Z,1012.68
2019-01-19T09:05:48.316Z,1012.72
2019-01-19T09:06:48.311Z,1012.68
2019-01-19T09:07:48.279Z,1012.67
2019-01-19T09:08:48.305Z,1012.71
2019-01-19T09:09:48.263Z,1012.67
2019-01-19T09:10:48.246Z,1012.60
2019-01-19T09:11:48.256Z,1012.62
2019-01-19T09:12:48.224Z,1012.64
2019-01-19T09:13:48.240Z,1012.66
2019-01-19T09:14:48.201Z,1012.63
2019-01-19T09:15:48.227Z,1012.69
2019-01-19T09:16:48.192Z,1012.68
2019-01-19T09:17:48.197Z,1012.70
2019-01-19T09:18:48.157Z,1012.73
2019-01-19T09:19:48.145Z,1012.65
2019-01-19T09:20:48.151Z,1012.73
2019-01-19T09:21:49.710Z,1012.72
2019-01-19T09:22:48.137Z,1012.68
2019-01-19T09:23:48.141Z,1012.72
2019-01-19T09:24:48.094Z,1012.69
2019-01-19T09:25:48.079Z,1012.68
2019-01-19T09:26:48.082Z,1012.68
2019-01-19T09:27:48.058Z,1012.68
2019-01-19T09:28:48.058Z,1012.64
2019-01-19T09:29:48.052Z,1012.73
2019-01-19T09:30:48.025Z,1012.71
2019-01-19T09:31:48.055Z,1012.71
2019-01-19T09:32:48.003Z,1012.73
2019-01-19T09:33:48.009Z,1012.76
2019-01-19T09:34:48.001Z,1012.75
2019-01-19T09:35:47.988Z,1012.82
2019-01-19T09:36:47.987Z,1012.85
2019-01-19T09:37:47.946Z,1012.81
2019-01-19T09:38:47.934Z,1012.78
2019-01-19T09:39:47.926Z,1012.79
2019-01-19T09:40:47.937Z,1012.85
2019-01-19T09:41:47.929Z,1012.83
2019-01-19T09:42:47.894Z,1012.88
2019-01-19T09:43:47.886Z,1012.84
2019-01-19T09:44:47.875Z,1012.82
2019-01-19T09:45:47.880Z,1012.83
2019-01-19T09:46:47.852Z,1012.82
2019-01-19T09:47:47.863Z,1012.82
2019-01-19T09:48:47.853Z,1012.77
2019-01-19T09:49:47.833Z,1012.78
2019-01-19T09:50:47.803Z,1012.77
2019-01-19T09:51:47.793Z,1012.76
2019-01-19T09:52:47.797Z,1012.72
2019-01-19T09:53:47.792Z,1012.74
2019-01-19T09:54:47.762Z,1012.72
2019-01-19T09:55:47.747Z,1012.71
2019-01-19T09:56:47.763Z,1012.73
2019-01-19T09:57:47.724Z,1012.67
2019-01-19T09:58:47.714Z,1012.76
2019-01-19T09:59:47.747Z,1012.72
2019-01-19T10:00:47.691Z,1012.72
2019-01-19T10:01:47.679Z,1012.68
2019-01-19T10:02:47.675Z,1012.68
2019-01-19T10:03:47.657Z,1012.73
2019-01-19T10:04:47.669Z,1012.65
2019-01-19T10:05:47.671Z,1012.68
2019-01-19T10:06:48.312Z,1012.71
2019-01-19T10:07:48.642Z,1012.75
2019-01-19T10:08:47.602Z,1012.75
2019-01-19T10:09:47.591Z,1012.70
2019-01-19T10:10:47.583Z,1012.72
2019-01-19T10:11:47.591Z,1012.73
2019-01-19T10:12:47.564Z,1012.68
2019-01-19T10:13:47.571Z,1012.71
2019-01-19T10:14:47.533Z,1012.75
2019-01-19T10:15:47.526Z,1012.72
2019-01-19T10:16:47.512Z,1012.67
2019-01-19T10:17:47.548Z,1012.71
2019-01-19T10:18:47.490Z,1012.67
2019-01-19T10:19:47.478Z,1012.69
2019-01-19T10:20:47.482Z,1012.64
2019-01-19T10:21:47.515Z,1012.69
2019-01-19T10:22:47.448Z,1012.68
2019-01-19T10:23:47.459Z,1012.69
2019-01-19T10:24:47.493Z,1012.72
2019-01-19T10:25:47.412Z,1012.75
2019-01-19T10:26:47.426Z,1012.75
2019-01-19T10:27:47.413Z,1012.73
2019-01-19T10:28:47.380Z,1012.76
2019-01-19T10:29:47.389Z,1012.75
2019-01-19T10:30:47.356Z,1012.73
2019-01-19T10:31:47.345Z,1012.72
2019-01-19T10:32:47.346Z,1012.71
2019-01-19T10:33:47.321Z,1012.76
2019-01-19T10:34:47.310Z,1012.71
2019-01-19T10:35:47.393Z,1012.69
2019-01-19T10:36:47.289Z,1012.66
2019-01-19T10:37:47.277Z,1012.69
2019-01-19T10:38:47.268Z,1012.68
2019-01-19T10:39:47.269Z,1012.67
2019-01-19T10:40:47.259Z,1012.68
2019-01-19T10:41:47.289Z,1012.64
2019-01-19T10:42:47.222Z,1012.61
2019-01-19T10:43:47.211Z,1012.59
2019-01-19T10:44:47.217Z,1012.56
2019-01-19T10:45:47.207Z,1012.57
2019-01-19T10:46:47.176Z,1012.56
2019-01-19T10:47:47.211Z,1012.53
2019-01-19T10:48:47.155Z,1012.53
2019-01-19T10:49:47.167Z,1012.50
2019-01-19T10:50:47.134Z,1012.50
2019-01-19T10:51:47.120Z,1012.46
2019-01-19T10:52:47.110Z,1012.39
2019-01-19T10:53:47.137Z,1012.48
2019-01-19T10:54:47.092Z,1012.47
2019-01-19T10:55:47.078Z,1012.40
2019-01-19T10:56:47.081Z,1012.38
2019-01-19T10:57:47.078Z,1012.41
2019-01-19T10:58:47.043Z,1012.43
2019-01-19T10:59:47.057Z,1012.42
2019-01-19T11:00:47.030Z,1012.37
2019-01-19T11:01:47.053Z,1012.44
2019-01-19T11:02:47.003Z,1012.40
2019-01-19T11:03:46.987Z,1012.40
2019-01-19T11:04:46.977Z,1012.39
2019-01-19T11:05:46.977Z,1012.40
2019-01-19T11:06:46.971Z,1012.34
2019-01-19T11:07:46.946Z,1012.39
2019-01-19T11:08:46.951Z,1012.35
2019-01-19T11:09:46.921Z,1012.33
2019-01-19T11:10:46.920Z,1012.32
2019-01-19T11:11:46.910Z,1012.31
2019-01-19T11:12:46.917Z,1012.26
2019-01-19T11:13:54.432Z,1012.29
2019-01-19T11:14:46.866Z,1012.32
2019-01-19T11:15:46.852Z,1012.26
2019-01-19T11:16:46.870Z,1012.22
2019-01-19T11:17:46.840Z,1012.23
2019-01-19T11:18:46.821Z,1012.16
2019-01-19T11:19:46.817Z,1012.15
2019-01-19T11:20:46.808Z,1012.15
2019-01-19T11:21:46.804Z,1012.07
2019-01-19T11:22:46.783Z,1012.11
2019-01-19T11:23:46.767Z,1012.11
2019-01-19T11:24:46.761Z,1012.09
2019-01-19T11:25:46.744Z,1012.11
2019-01-19T11:26:46.731Z,1012.10
2019-01-19T11:27:46.742Z,1012.08
2019-01-19T11:28:46.709Z,1012.09
2019-01-19T11:29:46.696Z,1012.10
2019-01-19T11:30:46.703Z,1012.02
2019-01-19T11:31:46.676Z,1011.99
2019-01-19T11:32:46.663Z,1012.01
2019-01-19T11:33:46.672Z,1012.05
2019-01-19T11:34:46.640Z,1011.99
2019-01-19T11:35:46.629Z,1011.99
2019-01-19T11:36:46.655Z,1011.97
2019-01-19T11:37:46.619Z,1011.98
2019-01-19T11:38:46.595Z,1011.99
2019-01-19T11:39:46.602Z,1011.90
2019-01-19T11:40:46.576Z,1011.95
2019-01-19T11:41:46.571Z,1011.90
2019-01-19T11:42:46.552Z,1011.87
2019-01-19T11:43:46.624Z,1011.89
2019-01-19T11:44:46.534Z,1011.89
2019-01-19T11:45:46.532Z,1011.86
2019-01-19T11:46:46.519Z,1011.86
2019-01-19T11:47:46.503Z,1011.88
2019-01-19T11:48:46.507Z,1011.83
2019-01-19T11:49:46.475Z,1011.81
2019-01-19T11:50:46.489Z,1011.81
2019-01-19T11:51:46.470Z,1011.82
2019-01-19T11:52:46.444Z,1011.81
2019-01-19T11:53:46.433Z,1011.75
2019-01-19T11:54:46.440Z,1011.76
2019-01-19T11:55:46.408Z,1011.74
2019-01-19T11:56:46.423Z,1011.71
2019-01-19T11:57:46.396Z,1011.76
2019-01-19T11:58:46.375Z,1011.72
2019-01-19T11:59:46.361Z,1011.76
2019-01-19T12:00:46.360Z,1011.74
2019-01-19T12:01:46.340Z,1011.77
2019-01-19T12:02:46.363Z,1011.80
2019-01-19T12:03:46.318Z,1011.74
2019-01-19T12:04:46.311Z,1011.74
2019-01-19T12:05:46.298Z,1011.76